Time;durP1;ratioP1;P1;durP2;ratioP2;P2;SDS_P1;SDS_P2;PMS_P1;PMS_P2;Temp;Humidity;BMP_temperature;BMP_pressure;BME280_temperature;BME280_humidity;BME280_pressure;Samples;Min_cycle;Max_cycle;Signal;HPM_P1;HPM_P2
2022/11/21 00:01:57;;;;;;;;;;;23.90;75.30;;;;;;5112826;28;19920;-62
2022/11/21 00:04:24;;;;;;;;;;;23.80;75.60;;;;;;5113207;28;19914;-62
2022/11/21 00:06:51;;;;;;;;;;;23.80;76.10;;;;;;5112912;28;20394;-61
2022/11/21 00:09:18;;;;;;;;;;;23.70;77.50;;;;;;5113143;28;19981;-61
2022/11/21 00:11:45;;;;;;;;;;;24.00;75.50;;;;;;5112861;28;19915;-60
2022/11/21 00:14:11;;;;;;;;;;;24.00;77.10;;;;;;5111115;28;19947;-63
2022/11/21 00:16:38;;;;;;;;;;;23.90;76.30;;;;;;5113028;28;20239;-66
2022/11/21 00:19:05;;;;;;;;;;;24.00;77.20;;;;;;5112928;28;19911;-62
2022/11/21 00:21:31;;;;;;;;;;;24.00;75.50;;;;;;5115949;28;19946;-66
2022/11/21 00:23:58;;;;;;;;;;;24.10;75.20;;;;;;5116573;28;19908;-62
2022/11/21 00:26:25;;;;;;;;;;;24.30;76.60;;;;;;5116491;28;19908;-62
2022/11/21 00:28:51;;;;;;;;;;;24.20;75.00;;;;;;5114546;28;19919;-66
2022/11/21 00:31:22;;;;;;;;;;;24.10;75.20;;;;;;5111292;28;20282;-61
2022/11/21 00:33:49;;;;;;;;;;;24.00;76.00;;;;;;5116432;28;20273;-65
2022/11/21 00:36:15;;;;;;;;;;;23.90;75.20;;;;;;5116301;28;19923;-66
2022/11/21 00:38:42;;;;;;;;;;;24.00;74.60;;;;;;5116615;28;19908;-63
2022/11/21 00:41:09;;;;;;;;;;;24.10;74.00;;;;;;5115927;28;20011;-61
2022/11/21 00:43:35;;;;;;;;;;;24.30;74.40;;;;;;5114335;28;19911;-61
2022/11/21 00:46:03;;;;;;;;;;;24.50;73.70;;;;;;5116139;28;20331;-67
2022/11/21 00:48:30;;;;;;;;;;;24.50;74.00;;;;;;5101564;28;20362;-65
2022/11/21 00:50:57;;;;;;;;;;;24.50;73.40;;;;;;5095632;28;19913;-65
2022/11/21 00:53:23;;;;;;;;;;;24.60;73.00;;;;;;5095552;28;19908;-65
2022/11/21 00:55:50;;;;;;;;;;;25.00;74.00;;;;;;5095184;28;20002;-63
2022/11/21 00:58:17;;;;;;;;;;;25.20;71.50;;;;;;5094564;28;19924;-63
2022/11/21 01:00:43;;;;;;;;;;;24.70;72.90;;;;;;5094766;28;19919;-60
2022/11/21 01:03:10;;;;;;;;;;;24.60;74.20;;;;;;5095632;28;19909;-60
2022/11/21 01:05:37;;;;;;;;;;;24.90;72.40;;;;;;5095574;28;19913;-60
2022/11/21 01:08:04;;;;;;;;;;;24.70;71.60;;;;;;5095654;28;19963;-61
2022/11/21 01:10:30;;;;;;;;;;;24.50;72.10;;;;;;5095379;28;19915;-60
2022/11/21 01:12:57;;;;;;;;;;;24.50;71.90;;;;;;5094049;28;19922;-62
2022/11/21 01:15:27;;;;;;;;;;;24.40;73.00;;;;;;5095459;28;20353;-61
2022/11/21 01:17:53;;;;;;;;;;;24.80;73.50;;;;;;5095398;28;20365;-60
2022/11/21 01:20:20;;;;;;;;;;;25.40;73.00;;;;;;5095391;28;19958;-61
2022/11/21 01:22:47;;;;;;;;;;;26.00;72.00;;;;;;5095031;28;20350;-60
2022/11/21 01:25:13;;;;;;;;;;;26.10;71.40;;;;;;5095100;28;19908;-61
2022/11/21 01:27:40;;;;;;;;;;;26.30;70.60;;;;;;5094490;28;20007;-61
2022/11/21 01:30:07;;;;;;;;;;;26.50;71.50;;;;;;5095100;28;19933;-61
2022/11/21 01:32:34;;;;;;;;;;;26.00;70.20;;;;;;5094850;28;20002;-61
2022/11/21 01:35:00;;;;;;;;;;;25.20;72.70;;;;;;5094571;28;20003;-61
2022/11/21 01:37:27;;;;;;;;;;;25.00;73.40;;;;;;5094732;28;19920;-60
2022/11/21 01:39:54;;;;;;;;;;;24.70;73.30;;;;;;5095053;28;20347;-60
2022/11/21 01:42:21;;;;;;;;;;;24.40;72.20;;;;;;5093574;28;20346;-61
2022/11/21 01:44:49;;;;;;;;;;;24.10;74.60;;;;;;5094570;28;19946;-60
2022/11/21 01:47:16;;;;;;;;;;;23.90;75.20;;;;;;5094699;28;19912;-60
2022/11/21 01:49:43;;;;;;;;;;;23.90;77.50;;;;;;5094676;28;20389;-60
2022/11/21 01:52:12;;;;;;;;;;;23.70;75.70;;;;;;5094730;28;19915;-61
2022/11/21 01:54:52;;;;;;;;;;;24.00;74.80;;;;;;5094538;28;20369;-60
2022/11/21 01:57:21;;;;;;;;;;;23.90;73.20;;;;;;5093017;28;19939;-61
2022/11/21 01:59:50;;;;;;;;;;;24.00;73.50;;;;;;5093627;28;19919;-60
2022/11/21 02:02:19;;;;;;;;;;;23.90;72.50;;;;;;5094428;28;19912;-61
2022/11/21 02:04:47;;;;;;;;;;;23.90;71.60;;;;;;5094246;28;19908;-60
2022/11/21 02:07:15;;;;;;;;;;;23.80;72.40;;;;;;5094252;28;20354;-61
2022/11/21 02:09:44;;;;;;;;;;;24.10;72.70;;;;;;5094439;28;19908;-61
2022/11/21 02:12:15;;;;;;;;;;;24.30;72.30;;;;;;5093074;28;19935;-60
2022/11/21 02:14:42;;;;;;;;;;;24.40;73.00;;;;;;5094220;28;19912;-62
2022/11/21 02:17:09;;;;;;;;;;;24.30;73.60;;;;;;5093944;28;19963;-62
2022/11/21 02:19:36;;;;;;;;;;;23.90;74.80;;;;;;5094140;28;19961;-62
2022/11/21 02:22:06;;;;;;;;;;;23.80;76.30;;;;;;5094088;28;19914;-63
2022/11/21 02:24:39;;;;;;;;;;;23.70;75.50;;;;;;5094014;28;20397;-62
2022/11/21 02:27:06;;;;;;;;;;;23.50;75.50;;;;;;5092755;28;20355;-61
2022/11/21 02:29:32;;;;;;;;;;;23.50;75.30;;;;;;5094015;28;19909;-61
2022/11/21 02:32:02;;;;;;;;;;;23.30;77.00;;;;;;5093895;28;20003;-61
2022/11/21 02:34:28;;;;;;;;;;;23.40;75.60;;;;;;5092662;28;19908;-61
2022/11/21 02:36:56;;;;;;;;;;;23.60;76.30;;;;;;5093758;28;19923;-61
2022/11/21 02:39:28;;;;;;;;;;;23.50;76.60;;;;;;5093764;28;19961;-62
2022/11/21 02:42:15;;;;;;;;;;;23.30;75.50;;;;;;5092562;28;20374;-60
2022/11/21 02:44:55;;;;;;;;;;;22.90;75.00;;;;;;5092163;28;20390;-60
2022/11/21 02:47:23;;;;;;;;;;;22.80;76.40;;;;;;5093740;28;20416;-62
2022/11/21 02:50:15;;;;;;;;;;;22.60;76.10;;;;;;5093686;28;20351;-61
2022/11/21 02:52:42;;;;;;;;;;;22.70;76.70;;;;;;5092434;28;19970;-61
2022/11/21 02:55:10;;;;;;;;;;;22.90;76.80;;;;;;5095576;28;19920;-60
2022/11/21 02:57:38;;;;;;;;;;;23.00;75.80;;;;;;5113803;28;20017;-60
2022/11/21 03:00:05;;;;;;;;;;;23.00;75.10;;;;;;5113870;28;19956;-60
2022/11/21 03:02:32;;;;;;;;;;;23.10;73.40;;;;;;5113793;28;19915;-61
2022/11/21 03:04:58;;;;;;;;;;;23.20;73.10;;;;;;5113590;28;19908;-60
2022/11/21 03:07:25;;;;;;;;;;;23.10;72.50;;;;;;5113945;28;20000;-60
2022/11/21 03:09:52;;;;;;;;;;;23.10;72.50;;;;;;5111963;28;19908;-61
2022/11/21 03:12:18;;;;;;;;;;;23.10;72.10;;;;;;5113110;28;20380;-61
2022/11/21 03:14:45;;;;;;;;;;;23.10;72.90;;;;;;5093130;28;20003;-61
2022/11/21 03:17:12;;;;;;;;;;;23.30;72.70;;;;;;5093133;28;19923;-61
2022/11/21 03:19:38;;;;;;;;;;;23.40;73.00;;;;;;5093217;28;19912;-61
2022/11/21 03:22:05;;;;;;;;;;;23.30;73.30;;;;;;5075105;28;19908;-60
2022/11/21 03:24:32;;;;;;;;;;;23.30;73.80;;;;;;5095887;28;20006;-61
2022/11/21 03:26:59;;;;;;;;;;;23.30;73.90;;;;;;5113356;28;20267;-61
2022/11/21 03:29:25;;;;;;;;;;;23.20;74.00;;;;;;5113702;28;19908;-61
2022/11/21 03:31:52;;;;;;;;;;;23.10;72.80;;;;;;5113438;28;19956;-61
2022/11/21 03:34:19;;;;;;;;;;;23.00;73.30;;;;;;5103733;28;20362;-61
2022/11/21 03:36:45;;;;;;;;;;;22.90;72.20;;;;;;5092821;28;20015;-60
2022/11/21 03:39:12;;;;;;;;;;;22.90;72.00;;;;;;5095059;28;20247;-61
2022/11/21 03:41:39;;;;;;;;;;;22.90;72.60;;;;;;5113383;28;20388;-60
2022/11/21 03:44:07;;;;;;;;;;;23.10;72.00;;;;;;5113620;28;19908;-60
2022/11/21 03:46:35;;;;;;;;;;;22.90;73.80;;;;;;5113359;28;19908;-61
2022/11/21 03:49:02;;;;;;;;;;;23.10;73.00;;;;;;5113132;28;19915;-61
2022/11/21 03:51:29;;;;;;;;;;;23.00;72.70;;;;;;5113218;28;20327;-61
2022/11/21 03:53:56;;;;;;;;;;;23.00;73.40;;;;;;5111800;28;19951;-61
2022/11/21 03:56:23;;;;;;;;;;;23.10;71.80;;;;;;5115802;28;20282;-61
2022/11/21 03:58:49;;;;;;;;;;;23.10;72.00;;;;;;5116933;28;19908;-62
2022/11/21 04:01:16;;;;;;;;;;;23.20;72.10;;;;;;5117005;28;19908;-61
2022/11/21 04:03:43;;;;;;;;;;;23.20;72.60;;;;;;5117010;28;19915;-61
2022/11/21 04:06:14;;;;;;;;;;;23.30;71.30;;;;;;5116981;28;19920;-61
2022/11/21 04:08:41;;;;;;;;;;;23.40;73.00;;;;;;5115137;28;19916;-61
2022/11/21 04:11:08;;;;;;;;;;;23.50;71.80;;;;;;5116395;28;20403;-61
2022/11/21 04:13:35;;;;;;;;;;;23.50;72.90;;;;;;5116767;28;19953;-61
2022/11/21 04:16:01;;;;;;;;;;;23.50;73.80;;;;;;5116571;28;19907;-61
2022/11/21 04:18:28;;;;;;;;;;;23.60;71.70;;;;;;5116442;28;19953;-62
2022/11/21 04:20:59;;;;;;;;;;;23.50;71.80;;;;;;5116506;28;19908;-61
2022/11/21 04:23:26;;;;;;;;;;;23.50;71.30;;;;;;5115355;28;20332;-61
2022/11/21 04:25:52;;;;;;;;;;;23.30;72.20;;;;;;5115029;28;19923;-61
2022/11/21 04:28:19;;;;;;;;;;;23.20;72.90;;;;;;5116440;28;19907;-61
2022/11/21 04:30:46;;;;;;;;;;;23.30;74.20;;;;;;5116330;28;19908;-61
2022/11/21 04:33:13;;;;;;;;;;;23.20;74.50;;;;;;5116438;28;20002;-62
2022/11/21 04:35:41;;;;;;;;;;;22.70;76.10;;;;;;5116310;28;19907;-61
2022/11/21 04:38:08;;;;;;;;;;;22.70;76.10;;;;;;5114279;28;19990;-61
2022/11/21 04:40:35;;;;;;;;;;;22.60;76.70;;;;;;5116381;28;19908;-61
2022/11/21 04:43:02;;;;;;;;;;;22.60;76.60;;;;;;5116142;28;20427;-62
2022/11/21 04:45:29;;;;;;;;;;;22.60;77.50;;;;;;5116057;28;19908;-62
2022/11/21 04:47:55;;;;;;;;;;;22.70;76.40;;;;;;5116264;28;19915;-61
2022/11/21 04:50:23;;;;;;;;;;;22.20;76.20;;;;;;5116148;28;19973;-61
2022/11/21 04:52:53;;;;;;;;;;;22.10;75.20;;;;;;5114073;28;19961;-61
2022/11/21 04:55:21;;;;;;;;;;;22.20;76.90;;;;;;5115675;28;20372;-61
2022/11/21 04:57:47;;;;;;;;;;;22.20;74.80;;;;;;5114788;28;19969;-62
2022/11/21 05:00:15;;;;;;;;;;;22.10;74.30;;;;;;5115935;28;19922;-61
2022/11/21 05:02:42;;;;;;;;;;;22.10;75.20;;;;;;5115927;28;19916;-61
2022/11/21 05:05:09;;;;;;;;;;;22.20;73.40;;;;;;5115816;28;19912;-61
2022/11/21 05:07:36;;;;;;;;;;;22.10;73.00;;;;;;5111229;28;21758;-61
2022/11/21 05:10:03;;;;;;;;;;;22.10;73.10;;;;;;5115689;28;19907;-61
2022/11/21 05:15:14;;;;;;;;;;;22.10;73.90;;;;;;5116139;28;19915;-61
2022/11/21 05:17:41;;;;;;;;;;;22.10;73.70;;;;;;5115757;28;19915;-61
2022/11/21 05:20:08;;;;;;;;;;;22.10;74.70;;;;;;5115612;28;19916;-61
2022/11/21 05:22:35;;;;;;;;;;;22.00;74.40;;;;;;5114187;28;19934;-60
2022/11/21 05:25:01;;;;;;;;;;;21.90;76.90;;;;;;5113857;28;19967;-60
2022/11/21 05:27:28;;;;;;;;;;;21.80;75.30;;;;;;5115418;28;19908;-61
2022/11/21 05:29:55;;;;;;;;;;;21.80;76.00;;;;;;5115428;28;20377;-61
2022/11/21 05:32:22;;;;;;;;;;;21.80;76.70;;;;;;5115348;28;20361;-61
2022/11/21 05:34:48;;;;;;;;;;;21.60;76.60;;;;;;5114921;28;20403;-61
2022/11/21 05:37:15;;;;;;;;;;;21.50;73.80;;;;;;5112978;28;19963;-63
2022/11/21 05:39:42;;;;;;;;;;;21.20;74.60;;;;;;5114935;28;19915;-61
2022/11/21 05:42:08;;;;;;;;;;;21.30;74.30;;;;;;5115044;28;19908;-61
2022/11/21 05:44:35;;;;;;;;;;;21.20;73.80;;;;;;5115025;28;19953;-62
2022/11/21 05:47:02;;;;;;;;;;;21.20;74.00;;;;;;5114717;28;19920;-61
2022/11/21 05:49:28;;;;;;;;;;;21.30;72.80;;;;;;5114924;28;20354;-61
2022/11/21 05:51:55;;;;;;;;;;;21.10;72.90;;;;;;5111421;28;19912;-61
2022/11/21 05:54:22;;;;;;;;;;;21.20;73.40;;;;;;5112588;28;19911;-61
2022/11/21 05:56:48;;;;;;;;;;;21.20;73.30;;;;;;5112118;28;19930;-61
2022/11/21 05:59:15;;;;;;;;;;;21.20;74.10;;;;;;5112675;28;19912;-64
2022/11/21 06:04:26;;;;;;;;;;;21.20;72.40;;;;;;5112577;28;20006;-60
2022/11/21 06:06:53;;;;;;;;;;;21.30;73.70;;;;;;5110209;28;19912;-61
2022/11/21 06:09:19;;;;;;;;;;;21.30;72.80;;;;;;5112299;28;19915;-62
2022/11/21 06:11:46;;;;;;;;;;;21.30;71.60;;;;;;5112582;28;20358;-64
2022/11/21 06:14:13;;;;;;;;;;;21.40;72.20;;;;;;5112272;28;19956;-61
2022/11/21 06:16:40;;;;;;;;;;;21.50;73.00;;;;;;5112189;28;19916;-63
2022/11/21 06:19:06;;;;;;;;;;;21.50;69.80;;;;;;5110761;28;20022;-61
2022/11/21 06:21:36;;;;;;;;;;;21.60;69.60;;;;;;5102156;28;19958;-63
2022/11/21 06:24:02;;;;;;;;;;;21.50;69.30;;;;;;5071459;28;19908;-65
2022/11/21 06:26:29;;;;;;;;;;;21.30;70.10;;;;;;5071595;28;19915;-62
2022/11/21 06:28:56;;;;;;;;;;;21.20;71.00;;;;;;5071182;28;19915;-61
2022/11/21 06:31:26;;;;;;;;;;;21.30;68.90;;;;;;5071024;28;19908;-61
2022/11/21 06:33:54;;;;;;;;;;;21.20;69.30;;;;;;5071300;28;20261;-61
2022/11/21 06:36:21;;;;;;;;;;;21.30;69.30;;;;;;5079199;28;19912;-61
2022/11/21 06:38:48;;;;;;;;;;;21.20;70.90;;;;;;5110220;28;20286;-61
2022/11/21 06:41:15;;;;;;;;;;;21.20;70.80;;;;;;5111823;28;19915;-62
2022/11/21 06:43:42;;;;;;;;;;;21.20;70.30;;;;;;5111415;28;19908;-62
2022/11/21 06:46:09;;;;;;;;;;;21.10;69.50;;;;;;5111755;28;19907;-61
2022/11/21 06:48:36;;;;;;;;;;;21.00;70.10;;;;;;5106591;28;20313;-62
2022/11/21 06:51:04;;;;;;;;;;;20.90;69.70;;;;;;5103962;28;19916;-63
2022/11/21 06:53:30;;;;;;;;;;;20.90;70.00;;;;;;5105093;28;20369;-61
2022/11/21 06:55:58;;;;;;;;;;;20.90;70.50;;;;;;5105010;28;20020;-61
2022/11/21 06:58:26;;;;;;;;;;;20.80;70.90;;;;;;5099729;28;19931;-61
2022/11/21 07:00:52;;;;;;;;;;;20.80;71.80;;;;;;5103065;28;19927;-63
2022/11/21 07:03:20;;;;;;;;;;;20.70;71.50;;;;;;5105178;28;19927;-61
2022/11/21 07:05:46;;;;;;;;;;;20.80;71.60;;;;;;5104747;28;19918;-62
2022/11/21 07:08:13;;;;;;;;;;;20.80;71.40;;;;;;5104907;28;19938;-62
2022/11/21 07:10:40;;;;;;;;;;;20.80;71.10;;;;;;5104447;28;19951;-62
2022/11/21 07:13:22;;;;;;;;;;;20.80;71.30;;;;;;5103089;28;19920;-64
2022/11/21 07:15:51;;;;;;;;;;;20.80;72.70;;;;;;5105137;28;19911;-61
2022/11/21 07:18:18;;;;;;;;;;;20.70;71.60;;;;;;5104915;28;20412;-64
2022/11/21 07:20:45;;;;;;;;;;;20.80;71.60;;;;;;5104894;28;20429;-64
2022/11/21 07:23:12;;;;;;;;;;;20.70;71.80;;;;;;5104554;28;20369;-61
2022/11/21 07:25:43;;;;;;;;;;;20.50;72.80;;;;;;5104496;28;19912;-61
2022/11/21 07:28:09;;;;;;;;;;;20.50;72.10;;;;;;5101608;28;19915;-62
2022/11/21 07:30:36;;;;;;;;;;;20.30;72.40;;;;;;5108209;28;20449;-65
2022/11/21 07:33:04;;;;;;;;;;;20.20;72.50;;;;;;5108873;28;19961;-62
2022/11/21 07:35:31;;;;;;;;;;;20.10;72.60;;;;;;5108446;28;19912;-65
2022/11/21 07:37:58;;;;;;;;;;;20.10;73.20;;;;;;5108679;28;19920;-64
2022/11/21 07:40:25;;;;;;;;;;;20.00;73.00;;;;;;5108585;28;19918;-61
2022/11/21 07:42:51;;;;;;;;;;;19.90;73.10;;;;;;5106776;28;19922;-61
2022/11/21 07:45:18;;;;;;;;;;;19.80;72.10;;;;;;5108868;28;19912;-64
2022/11/21 07:47:45;;;;;;;;;;;19.70;73.80;;;;;;5108524;28;19949;-63
2022/11/21 07:50:12;;;;;;;;;;;19.70;73.30;;;;;;5108365;28;19912;-62
2022/11/21 07:52:39;;;;;;;;;;;19.70;72.10;;;;;;5108575;28;19943;-64
2022/11/21 07:55:06;;;;;;;;;;;19.60;71.90;;;;;;5107755;28;19915;-67
2022/11/21 07:57:33;;;;;;;;;;;19.60;70.70;;;;;;5103850;28;20594;-62
2022/11/21 07:59:59;;;;;;;;;;;19.30;76.80;;;;;;5108251;28;20339;-61
2022/11/21 08:02:27;;;;;;;;;;;19.20;80.40;;;;;;5110643;28;19943;-61
2022/11/21 08:04:54;;;;;;;;;;;19.10;79.60;;;;;;5114671;28;20520;-62
2022/11/21 08:07:23;;;;;;;;;;;19.00;78.70;;;;;;5115003;28;19998;-62
2022/11/21 08:09:49;;;;;;;;;;;18.90;74.60;;;;;;5114759;28;19968;-65
2022/11/21 08:12:16;;;;;;;;;;;18.90;77.10;;;;;;5115723;28;19912;-61
2022/11/21 08:14:43;;;;;;;;;;;18.70;75.90;;;;;;5116941;28;19908;-65
2022/11/21 08:17:10;;;;;;;;;;;18.60;77.40;;;;;;5116381;28;19916;-63
2022/11/21 08:19:36;;;;;;;;;;;18.60;79.30;;;;;;5116687;28;19907;-62
2022/11/21 08:22:03;;;;;;;;;;;18.50;73.60;;;;;;5116714;28;20335;-62
2022/11/21 08:24:30;;;;;;;;;;;18.50;76.90;;;;;;5116475;28;19981;-63
2022/11/21 08:26:59;;;;;;;;;;;18.40;77.50;;;;;;5114247;28;19919;-62
2022/11/21 08:29:25;;;;;;;;;;;18.40;78.00;;;;;;5116545;28;20416;-61
2022/11/21 08:31:52;;;;;;;;;;;18.40;77.10;;;;;;5116455;28;20282;-62
2022/11/21 08:34:19;;;;;;;;;;;18.30;77.40;;;;;;5116350;28;19908;-59
2022/11/21 08:36:45;;;;;;;;;;;18.30;78.80;;;;;;5115952;28;19916;-60
2022/11/21 08:39:12;;;;;;;;;;;18.30;76.20;;;;;;5116155;28;19908;-61
2022/11/21 08:44:23;;;;;;;;;;;18.10;76.60;;;;;;5107391;28;19976;-62
2022/11/21 08:46:50;;;;;;;;;;;18.10;76.40;;;;;;5107266;28;19947;-65
2022/11/21 08:49:17;;;;;;;;;;;18.20;77.90;;;;;;5107368;28;19916;-60
2022/11/21 08:51:48;;;;;;;;;;;18.00;77.20;;;;;;5107372;28;20407;-61
2022/11/21 08:54:15;;;;;;;;;;;18.00;75.90;;;;;;5107110;28;19911;-60
2022/11/21 08:56:42;;;;;;;;;;;17.90;77.50;;;;;;5088939;28;19931;-62
2022/11/21 08:59:09;;;;;;;;;;;18.00;76.60;;;;;;5086868;28;19919;-61
2022/11/21 09:01:36;;;;;;;;;;;17.90;75.20;;;;;;5086742;28;19912;-60
2022/11/21 09:04:03;;;;;;;;;;;17.90;76.10;;;;;;5086772;28;19912;-61
2022/11/21 09:06:30;;;;;;;;;;;17.90;75.30;;;;;;5086738;28;19920;-60
2022/11/21 09:08:57;;;;;;;;;;;17.90;76.50;;;;;;5085994;28;19962;-60
2022/11/21 09:11:24;;;;;;;;;;;17.80;77.30;;;;;;5085808;28;20374;-60
2022/11/21 09:19:20;;;;;;;;;;;17.80;80.40;;;;;;5085800;28;19999;-61
2022/11/21 09:21:50;;;;;;;;;;;17.80;76.70;;;;;;5085626;28;19927;-61
2022/11/21 09:24:18;;;;;;;;;;;17.80;76.70;;;;;;5082260;28;19927;-61
2022/11/21 09:26:45;;;;;;;;;;;17.80;79.30;;;;;;5086207;28;19919;-61
2022/11/21 09:29:13;;;;;;;;;;;17.80;77.40;;;;;;5086137;28;19919;-61
2022/11/21 09:31:40;;;;;;;;;;;17.80;77.40;;;;;;5085971;28;19912;-63
2022/11/21 09:34:07;;;;;;;;;;;17.90;77.00;;;;;;5086264;28;19974;-61
2022/11/21 09:36:34;;;;;;;;;;;17.80;76.90;;;;;;5086232;28;19927;-67
2022/11/21 09:39:01;;;;;;;;;;;17.70;76.30;;;;;;5085258;28;19943;-62
2022/11/21 09:44:21;;;;;;;;;;;17.70;78.80;;;;;;5085924;28;19989;-62
2022/11/21 09:46:49;;;;;;;;;;;17.70;77.00;;;;;;5091417;28;19915;-67
2022/11/21 09:49:16;;;;;;;;;;;17.60;76.40;;;;;;5092313;28;20366;-67
2022/11/21 09:51:44;;;;;;;;;;;17.60;78.00;;;;;;5092045;28;19990;-68
2022/11/21 09:54:26;;;;;;;;;;;17.60;76.80;;;;;;5091118;28;19923;-66
2022/11/21 09:56:53;;;;;;;;;;;17.50;77.10;;;;;;5108935;28;20263;-67
2022/11/21 09:59:29;;;;;;;;;;;17.50;77.50;;;;;;5112773;28;19954;-67
2022/11/21 10:01:56;;;;;;;;;;;17.50;79.90;;;;;;5112268;28;19908;-68
2022/11/21 10:04:23;;;;;;;;;;;17.60;77.80;;;;;;5112326;28;19943;-68
2022/11/21 10:07:05;;;;;;;;;;;17.60;78.50;;;;;;5112077;28;19914;-67
2022/11/21 10:09:47;;;;;;;;;;;17.50;78.10;;;;;;5110415;28;19919;-68
2022/11/21 10:12:36;;;;;;;;;;;17.50;78.00;;;;;;5112446;28;20374;-68
2022/11/21 10:15:04;;;;;;;;;;;17.50;77.80;;;;;;5112319;28;19998;-67
2022/11/21 10:17:53;;;;;;;;;;;17.50;77.40;;;;;;5112520;28;19923;-67
2022/11/21 10:20:23;;;;;;;;;;;17.40;78.80;;;;;;5104095;28;19954;-67
2022/11/21 10:23:08;;;;;;;;;;;17.30;77.80;;;;;;5111945;28;19907;-68
2022/11/21 10:25:38;;;;;;;;;;;17.30;78.70;;;;;;5110347;28;19908;-67
2022/11/21 10:28:18;;;;;;;;;;;17.30;78.40;;;;;;5112163;28;19911;-64
2022/11/21 10:30:45;;;;;;;;;;;17.30;78.40;;;;;;5112138;28;20566;-61
2022/11/21 10:33:21;;;;;;;;;;;17.40;79.00;;;;;;5111922;28;20362;-67
2022/11/21 10:35:50;;;;;;;;;;;17.30;79.30;;;;;;5094753;28;19923;-65
2022/11/21 10:38:24;;;;;;;;;;;17.30;79.40;;;;;;5072028;28;19971;-66
2022/11/21 10:40:54;;;;;;;;;;;17.40;80.10;;;;;;5081026;28;19916;-67
2022/11/21 10:46:05;;;;;;;;;;;17.40;81.00;;;;;;5112022;28;20425;-66
2022/11/21 10:48:32;;;;;;;;;;;17.30;80.80;;;;;;5111467;28;19907;-67
2022/11/21 10:50:58;;;;;;;;;;;17.30;80.50;;;;;;5111320;28;19907;-63
2022/11/21 10:56:15;;;;;;;;;;;17.20;80.80;;;;;;5112732;28;19970;-68
2022/11/21 10:58:43;;;;;;;;;;;17.20;81.80;;;;;;5113791;28;19940;-67
2022/11/21 11:01:18;;;;;;;;;;;17.20;80.00;;;;;;5113465;28;20429;-68
2022/11/21 11:03:45;;;;;;;;;;;17.10;80.30;;;;;;5113504;28;19990;-66
2022/11/21 11:06:12;;;;;;;;;;;17.10;80.10;;;;;;5113257;28;19907;-64
2022/11/21 11:08:53;;;;;;;;;;;17.00;79.40;;;;;;5109114;28;19911;-67
2022/11/21 11:11:24;;;;;;;;;;;16.90;80.30;;;;;;5113728;28;19914;-66
2022/11/21 11:13:58;;;;;;;;;;;16.90;79.50;;;;;;5113592;28;19931;-65
2022/11/21 11:16:26;;;;;;;;;;;16.90;80.80;;;;;;5113703;28;20362;-67
2022/11/21 11:18:58;;;;;;;;;;;17.00;81.10;;;;;;5113414;28;20003;-67
2022/11/21 11:21:26;;;;;;;;;;;17.00;79.50;;;;;;5113011;28;19914;-67
2022/11/21 11:23:53;;;;;;;;;;;16.90;78.90;;;;;;5104820;28;20006;-64
2022/11/21 11:26:21;;;;;;;;;;;16.80;79.00;;;;;;5073076;28;19914;-66
2022/11/21 11:28:48;;;;;;;;;;;16.90;79.70;;;;;;5072476;28;20389;-65
2022/11/21 11:31:15;;;;;;;;;;;16.90;81.40;;;;;;5066187;28;20397;-68
2022/11/21 11:33:50;;;;;;;;;;;16.90;79.40;;;;;;5064297;28;20286;-66
2022/11/21 11:36:23;;;;;;;;;;;16.80;79.00;;;;;;5064273;28;19995;-60
2022/11/21 11:38:55;;;;;;;;;;;16.80;80.20;;;;;;5092743;28;19931;-67
2022/11/21 11:47:42;;;;;;;;;;;16.70;80.50;;;;;;5088363;28;19919;-68
2022/11/21 11:50:11;;;;;;;;;;;16.70;79.90;;;;;;5104666;28;19937;-62
2022/11/21 11:52:58;;;;;;;;;;;16.60;80.50;;;;;;5103087;28;19973;-64
2022/11/21 11:55:24;;;;;;;;;;;16.60;81.50;;;;;;5094922;28;20371;-63
2022/11/21 11:57:54;;;;;;;;;;;16.50;81.80;;;;;;5082881;28;20373;-62
2022/11/21 12:00:24;;;;;;;;;;;16.40;82.40;;;;;;5064411;28;20666;-66
2022/11/21 12:02:58;;;;;;;;;;;16.30;83.50;;;;;;5066469;28;19995;-62
2022/11/21 12:05:26;;;;;;;;;;;16.20;83.70;;;;;;5072247;28;19934;-61
2022/11/21 12:08:12;;;;;;;;;;;16.20;84.90;;;;;;5083339;28;20270;-63
2022/11/21 12:13:35;;;;;;;;;;;16.10;86.10;;;;;;5092492;28;19915;-63
2022/11/21 12:16:04;;;;;;;;;;;16.00;86.30;;;;;;5093208;28;19909;-61
2022/11/21 12:18:43;;;;;;;;;;;16.00;86.30;;;;;;5096083;28;19958;-62
2022/11/21 12:21:13;;;;;;;;;;;15.90;87.60;;;;;;5095933;28;19919;-62
2022/11/21 12:23:49;;;;;;;;;;;15.70;88.20;;;;;;5095943;28;19912;-62
2022/11/21 12:26:34;;;;;;;;;;;15.70;88.10;;;;;;5095896;28;19915;-65
2022/11/21 12:29:10;;;;;;;;;;;15.70;88.20;;;;;;5096248;28;19908;-63
2022/11/21 12:31:39;;;;;;;;;;;15.80;88.20;;;;;;5096409;28;20054;-64
2022/11/21 12:34:24;;;;;;;;;;;15.70;88.20;;;;;;5096412;28;19954;-60
2022/11/21 12:37:03;;;;;;;;;;;15.70;89.00;;;;;;5094668;28;20263;-65
2022/11/21 12:39:36;;;;;;;;;;;15.70;88.20;;;;;;5096235;28;20007;-60
2022/11/21 12:45:26;;;;;;;;;;;15.60;88.50;;;;;;5087173;28;19985;-60
2022/11/21 12:54:30;;;;;;;;;;;15.60;87.50;;;;;;5094957;28;19919;-60
2022/11/21 12:57:10;;;;;;;;;;;15.40;89.60;;;;;;5114170;28;20370;-62
2022/11/21 13:00:00;;;;;;;;;;;15.50;89.00;;;;;;5116058;28;19908;-60
2022/11/21 13:02:34;;;;;;;;;;;15.40;90.20;;;;;;5116102;28;20007;-61
2022/11/21 13:05:02;;;;;;;;;;;15.50;90.10;;;;;;5115845;28;20346;-65
2022/11/21 13:07:30;;;;;;;;;;;15.40;89.60;;;;;;5112978;28;19911;-60
2022/11/21 13:09:58;;;;;;;;;;;15.40;89.90;;;;;;5116030;28;19926;-60
2022/11/21 13:12:48;;;;;;;;;;;15.20;89.50;;;;;;5115921;28;19908;-64
2022/11/21 13:15:30;;;;;;;;;;;15.10;90.90;;;;;;5086839;28;20366;-63
2022/11/21 13:18:03;;;;;;;;;;;15.20;90.20;;;;;;5115719;28;20282;-63
2022/11/21 13:20:32;;;;;;;;;;;15.10;90.40;;;;;;5113724;28;19912;-60
2022/11/21 13:23:05;;;;;;;;;;;15.00;90.40;;;;;;5115365;28;19922;-62
2022/11/21 13:25:36;;;;;;;;;;;15.00;90.70;;;;;;5115649;28;19951;-60
2022/11/21 13:28:09;;;;;;;;;;;15.10;91.70;;;;;;5115346;28;20362;-60
2022/11/21 13:30:45;;;;;;;;;;;15.00;90.80;;;;;;5115621;28;20002;-61
2022/11/21 13:33:31;;;;;;;;;;;15.00;92.10;;;;;;5115560;28;19908;-61
2022/11/21 13:35:58;;;;;;;;;;;14.90;91.20;;;;;;5113607;28;19911;-60
2022/11/21 13:38:25;;;;;;;;;;;14.90;91.80;;;;;;5113959;28;19927;-63
2022/11/21 13:43:36;;;;;;;;;;;15.00;91.50;;;;;;5115522;28;19930;-60
2022/11/21 13:46:03;;;;;;;;;;;14.90;92.10;;;;;;5115268;28;20429;-60
2022/11/21 13:48:35;;;;;;;;;;;14.60;91.70;;;;;;5115303;28;19977;-67
2022/11/21 13:51:20;;;;;;;;;;;14.70;92.60;;;;;;5112852;28;20014;-64
2022/11/21 13:53:59;;;;;;;;;;;14.70;92.20;;;;;;5115059;28;20351;-67
2022/11/21 13:56:29;;;;;;;;;;;14.70;92.30;;;;;;5114870;28;19925;-66
2022/11/21 13:58:58;;;;;;;;;;;14.90;92.70;;;;;;5114735;28;19915;-66
2022/11/21 14:01:25;;;;;;;;;;;14.70;92.30;;;;;;5114830;28;19932;-66
2022/11/21 14:03:54;;;;;;;;;;;14.70;92.50;;;;;;5114751;28;19908;-67
2022/11/21 14:06:37;;;;;;;;;;;14.70;93.00;;;;;;5112567;28;19988;-65
2022/11/21 14:09:24;;;;;;;;;;;14.90;93.10;;;;;;5114532;28;19912;-63
2022/11/21 14:11:54;;;;;;;;;;;14.80;92.50;;;;;;5114396;28;19908;-65
2022/11/21 14:14:33;;;;;;;;;;;14.70;92.50;;;;;;5114559;28;19908;-66
2022/11/21 14:16:59;;;;;;;;;;;14.60;93.40;;;;;;5114252;28;19911;-68
2022/11/21 14:19:27;;;;;;;;;;;14.60;92.70;;;;;;5112433;28;19919;-65
2022/11/21 14:21:54;;;;;;;;;;;14.70;93.30;;;;;;5100442;28;19972;-64
2022/11/21 14:24:21;;;;;;;;;;;14.60;92.60;;;;;;5114599;28;19969;-61
2022/11/21 14:26:51;;;;;;;;;;;14.60;92.70;;;;;;5114077;28;19912;-66
2022/11/21 14:29:21;;;;;;;;;;;14.60;92.60;;;;;;5114462;28;20353;-65
2022/11/21 14:31:48;;;;;;;;;;;14.40;92.70;;;;;;5114374;28;20389;-63
2022/11/21 14:34:31;;;;;;;;;;;14.40;92.90;;;;;;5094776;28;19908;-68
2022/11/21 14:36:59;;;;;;;;;;;14.30;92.20;;;;;;5113765;28;19916;-68
2022/11/21 14:39:27;;;;;;;;;;;14.20;92.40;;;;;;5113491;28;19937;-67
2022/11/21 14:41:55;;;;;;;;;;;14.30;92.40;;;;;;5114149;28;19953;-65
2022/11/21 14:44:23;;;;;;;;;;;14.30;93.00;;;;;;5114128;28;19908;-67
2022/11/21 14:46:51;;;;;;;;;;;14.40;92.70;;;;;;5113915;28;19908;-66
2022/11/21 14:49:17;;;;;;;;;;;14.40;92.50;;;;;;5112098;28;19990;-68
2022/11/21 14:51:48;;;;;;;;;;;14.10;92.70;;;;;;5113825;28;19935;-63
2022/11/21 14:54:26;;;;;;;;;;;14.10;93.10;;;;;;5113949;28;19912;-66
2022/11/21 14:57:05;;;;;;;;;;;14.10;93.40;;;;;;5095301;28;19924;-67
2022/11/21 14:59:35;;;;;;;;;;;14.20;92.70;;;;;;5113914;28;20006;-66
2022/11/21 15:02:11;;;;;;;;;;;14.20;93.10;;;;;;5113303;28;20227;-65
2022/11/21 15:04:38;;;;;;;;;;;14.20;92.90;;;;;;5112059;28;19912;-66
2022/11/21 15:07:15;;;;;;;;;;;14.20;92.70;;;;;;5113377;28;19919;-61
2022/11/21 15:09:42;;;;;;;;;;;14.20;92.80;;;;;;5113840;28;19907;-64
2022/11/21 15:12:10;;;;;;;;;;;14.10;92.50;;;;;;5113754;28;19930;-64